This is the latest recevied weather packets stored in our database for station/object K7DC. If no packets are shown the sender has not sent any weather packets the latest 1 day(s).
| Time | Temp. | Humidity | Pressure | Rain* | Wind** | Luminosity | Snow |
|---|---|---|---|---|---|---|---|
| 1778024316 | 23.89° C | 25% | 1010.7 hPa | 0 mm | 1.79 m/s, 253° | 134 W/m² | - |
| 1778024009 | 25° C | 25% | 1010.4 hPa | 0 mm | 2.68 m/s, 260° | 111 W/m² | - |
| 1778023706 | 25° C | 23% | 1010.7 hPa | 0 mm | 2.24 m/s, 283° | 419 W/m² | - |
| 1778023403 | 25° C | 24% | 1010.7 hPa | 0 mm | 2.68 m/s, 219° | 421 W/m² | - |
| 1778023100 | 25° C | 23% | 1010.5 hPa | 0 mm | 2.68 m/s, 249° | 431 W/m² | - |
| 1778022798 | 23.89° C | 25% | 1010.5 hPa | 0 mm | 1.34 m/s, 135° | 474 W/m² | - |
| 1778022496 | 23.89° C | 25% | 1010.6 hPa | 0 mm | 1.79 m/s, 284° | 107 W/m² | - |
| 1778022193 | 23.33° C | 27% | 1010.6 hPa | 0 mm | 1.34 m/s, 246° | 503 W/m² | - |
| 1778021889 | 24.44° C | 25% | 1010.6 hPa | 0 mm | 3.58 m/s, 276° | 80 W/m² | - |
| 1778021586 | 25° C | 24% | 1010.8 hPa | 0 mm | 3.13 m/s, 233° | 393 W/m² | - |
| 1778021281 | 25.56° C | 23% | 1010.5 hPa | 0 mm | 1.79 m/s, 179° | 528 W/m² | - |
| 1778020979 | 26.11° C | 23% | 1010.7 hPa | 0 mm | 4.47 m/s, 236° | 541 W/m² | - |
| 1778020677 | 25.56° C | 23% | 1010.8 hPa | 0 mm | 2.68 m/s, 277° | 553 W/m² | - |
| 1778020373 | 26.11° C | 20% | 1010.8 hPa | 0 mm | 4.47 m/s, 242° | 572 W/m² | - |
| 1778020069 | 26.11° C | 21% | 1010.7 hPa | 0 mm | 2.24 m/s, 251° | 586 W/m² | - |
| 1778019765 | 25.56° C | 24% | 1010.9 hPa | 0 mm | 2.68 m/s, 258° | 605 W/m² | - |
| 1778019463 | 25.56° C | 26% | 1010.9 hPa | 0 mm | 2.24 m/s, 260° | 622 W/m² | - |
| 1778019159 | 26.11° C | 24% | 1011.1 hPa | 0 mm | 2.68 m/s, 233° | 638 W/m² | - |
| 1778018856 | 26.67° C | 25% | 1010.9 hPa | 0 mm | 3.13 m/s, 231° | 666 W/m² | - |
| 1778018553 | 26.11° C | 26% | 1010.8 hPa | 0 mm | 4.02 m/s, 240° | 723 W/m² | - |
| 1778018252 | 25.56° C | 26% | 1010.9 hPa | 0 mm | 2.68 m/s, 277° | 727 W/m² | - |
| 1778017949 | 26.11° C | 27% | 1011.2 hPa | 0 mm | 1.79 m/s, 249° | 187 W/m² | - |
| 1778017646 | 25.56° C | 28% | 1011.1 hPa | 0 mm | 2.24 m/s, 253° | 249 W/m² | - |
| 1778017344 | 26.11° C | 28% | 1011.2 hPa | 0 mm | 2.24 m/s, 280° | 793 W/m² | - |
| 1778017041 | 25.56° C | 29% | 1011.2 hPa | 0 mm | 0.89 m/s, 286° | 148 W/m² | - |
* Rain latest hour (hover to see other rain measurements)
** Current wind speed in m/s (hover to see current wind gust speed)